Time;durP1;ratioP1;P1;durP2;ratioP2;P2;SDS_P1;SDS_P2;PMS_P1;PMS_P2;Temp;Humidity;BMP_temperature;BMP_pressure;BME280_temperature;BME280_humidity;BME280_pressure;Samples;Min_cycle;Max_cycle;Signal;HPM_P1;HPM_P2
2022/12/26 00:01:41;;;;;;;2.03;0.90;;;17.60;75.10;;;;;;5060496;28;45498;-71
2022/12/26 00:04:08;;;;;;;0.82;0.68;;;17.60;75.10;;;;;;5063054;28;45403;-71
2022/12/26 00:06:35;;;;;;;1.10;0.75;;;17.60;75.40;;;;;;5064334;28;45410;-71
2022/12/26 00:09:04;;;;;;;1.95;1.13;;;17.60;75.60;;;;;;5063871;28;45387;-71
2022/12/26 00:11:32;;;;;;;1.73;0.90;;;17.60;75.30;;;;;;5061660;28;45332;-71
2022/12/26 00:14:02;;;;;;;1.20;0.80;;;17.60;75.50;;;;;;5060790;28;45417;-71
2022/12/26 00:16:29;;;;;;;1.33;0.80;;;17.60;75.30;;;;;;5064493;28;45173;-71
2022/12/26 00:18:56;;;;;;;0.93;0.70;;;17.60;75.40;;;;;;5063464;28;47372;-71
2022/12/26 00:21:25;;;;;;;0.80;0.70;;;17.60;75.40;;;;;;5064150;28;45362;-71
2022/12/26 00:23:53;;;;;;;1.15;0.80;;;17.60;75.40;;;;;;5063195;28;45384;-71
2022/12/26 00:26:22;;;;;;;1.85;0.85;;;17.60;75.30;;;;;;5056627;28;45477;-71
2022/12/26 00:28:49;;;;;;;1.02;0.90;;;17.70;75.40;;;;;;5046616;28;45288;-71
2022/12/26 00:31:19;;;;;;;1.15;0.73;;;17.60;75.30;;;;;;5053998;28;45376;-71
2022/12/26 00:33:46;;;;;;;0.90;0.70;;;17.70;75.20;;;;;;5064565;28;45435;-71
2022/12/26 00:36:17;;;;;;;1.30;0.82;;;17.70;75.10;;;;;;5058528;28;45344;-71
2022/12/26 00:38:45;;;;;;;1.15;0.70;;;17.60;75.00;;;;;;5064464;28;47646;-71
2022/12/26 00:41:13;;;;;;;2.08;0.90;;;17.60;75.10;;;;;;5064224;28;45360;-71
2022/12/26 00:43:39;;;;;;;1.42;0.70;;;17.60;75.10;;;;;;5048073;28;45203;-71
2022/12/26 00:46:07;;;;;;;1.00;0.80;;;17.60;75.10;;;;;;5063398;28;45501;-71
2022/12/26 00:48:36;;;;;;;1.35;0.70;;;17.60;75.00;;;;;;5064214;28;47527;-71
2022/12/26 00:51:02;;;;;;;2.70;0.73;;;17.60;74.90;;;;;;5062814;28;45244;-71
2022/12/26 00:53:29;;;;;;;1.23;0.75;;;17.60;74.80;;;;;;5043296;28;45435;-71
2022/12/26 00:55:56;;;;;;;1.05;0.70;;;17.60;74.70;;;;;;5044190;28;45421;-71
2022/12/26 00:58:24;;;;;;;1.25;0.70;;;17.60;74.60;;;;;;5043895;28;46551;-71
2022/12/26 01:00:51;;;;;;;3.22;0.73;;;17.60;74.50;;;;;;5043056;28;45277;-71
2022/12/26 01:03:19;;;;;;;1.05;0.68;;;17.60;74.50;;;;;;5044037;28;45262;-71
2022/12/26 01:05:50;;;;;;;2.92;0.88;;;17.60;74.60;;;;;;5044040;28;45352;-71
2022/12/26 01:08:17;;;;;;;1.05;0.85;;;17.60;74.50;;;;;;5043716;28;46576;-71
2022/12/26 01:10:46;;;;;;;1.15;1.00;;;17.60;74.70;;;;;;5043148;28;45366;-70
2022/12/26 01:13:13;;;;;;;1.70;0.80;;;17.60;74.60;;;;;;5043775;28;45290;-71
2022/12/26 01:15:40;;;;;;;2.15;0.80;;;17.60;74.60;;;;;;5043390;28;45420;-71
2022/12/26 01:18:07;;;;;;;0.93;0.70;;;17.70;74.70;;;;;;5044277;28;47230;-71
2022/12/26 01:20:33;;;;;;;0.47;0.47;;;17.70;74.90;;;;;;5043132;28;45300;-71
2022/12/26 01:23:02;;;;;;;1.33;0.82;;;17.70;74.90;;;;;;5043552;28;45280;-71
2022/12/26 01:25:28;;;;;;;1.77;0.80;;;17.70;75.00;;;;;;5043381;28;45415;-71
2022/12/26 01:27:55;;;;;;;0.68;0.68;;;17.70;75.00;;;;;;5043336;28;46628;-71
2022/12/26 01:30:22;;;;;;;0.93;0.60;;;17.70;75.00;;;;;;5043171;28;45270;-71
2022/12/26 01:32:49;;;;;;;1.50;1.00;;;17.70;75.20;;;;;;5043703;28;45283;-71
2022/12/26 01:35:16;;;;;;;0.60;0.60;;;17.70;75.30;;;;;;5044270;28;45589;-73
2022/12/26 01:37:43;;;;;;;1.17;0.63;;;17.70;75.40;;;;;;5043534;28;45255;-71
2022/12/26 01:40:13;;;;;;;1.73;0.93;;;17.70;75.30;;;;;;5059014;28;45360;-70
2022/12/26 01:42:41;;;;;;;1.77;1.00;;;17.70;75.40;;;;;;5053206;27;45362;-71
2022/12/26 01:45:22;;;;;;;1.92;1.00;;;17.60;75.60;;;;;;5063471;28;45376;-70
2022/12/26 01:47:52;;;;;;;1.05;0.80;;;17.70;75.60;;;;;;5063410;28;47459;-71
2022/12/26 01:50:32;;;;;;;0.82;0.60;;;17.60;75.60;;;;;;5062524;28;45297;-70
2022/12/26 01:53:02;;;;;;;1.45;0.85;;;17.60;75.80;;;;;;5059125;28;45305;-71
2022/12/26 01:55:32;;;;;;;1.02;0.80;;;17.60;75.90;;;;;;5043522;28;45331;-71
2022/12/26 01:58:04;;;;;;;0.77;0.57;;;17.60;76.10;;;;;;5051453;28;45499;-71
2022/12/26 02:00:31;;;;;;;1.42;0.70;;;17.60;75.60;;;;;;5062963;28;45166;-70
2022/12/26 02:12:30;;;;;;;0.90;0.60;;;17.70;75.80;;;;;;5043917;28;45404;-71
2022/12/26 02:14:58;;;;;;;0.88;0.60;;;17.70;75.80;;;;;;5046684;28;45361;-71
2022/12/26 02:17:25;;;;;;;1.17;0.85;;;17.70;75.70;;;;;;5046296;28;45554;-71
2022/12/26 02:20:02;;;;;;;1.65;0.88;;;17.70;75.60;;;;;;5044833;28;47664;-71
2022/12/26 02:23:23;;;;;;;0.95;0.70;;;17.70;75.70;;;;;;5045670;28;45477;-71
2022/12/26 02:26:20;;;;;;;1.40;0.95;;;17.70;76.20;;;;;;4977981;28;45322;-71
2022/12/26 02:29:17;;;;;;;1.25;0.70;;;17.70;76.30;;;;;;5017620;28;45500;-71
2022/12/26 02:31:50;;;;;;;1.10;0.73;;;17.70;76.20;;;;;;5032996;28;45565;-71
2022/12/26 02:34:22;;;;;;;1.10;0.52;;;17.70;76.20;;;;;;5064028;28;45443;-71
2022/12/26 02:37:03;;;;;;;1.38;0.80;;;17.70;76.20;;;;;;5063370;28;45303;-71
2022/12/26 02:39:46;;;;;;;1.45;0.75;;;17.60;76.10;;;;;;5065293;28;45269;-71
2022/12/26 02:42:25;;;;;;;0.63;0.57;;;17.60;76.20;;;;;;5065905;28;48202;-71
2022/12/26 02:47:53;;;;;;;1.20;0.95;;;17.60;76.20;;;;;;5065760;28;45446;-71
2022/12/26 03:13:10;;;;;;;0.73;0.63;;;17.70;76.30;;;;;;5046280;28;45305;-71
2022/12/26 03:18:24;;;;;;;0.43;0.40;;;17.70;76.20;;;;;;5044162;28;45514;-71
2022/12/26 03:20:53;;;;;;;1.08;0.60;;;17.70;76.30;;;;;;5041211;28;45214;-71
2022/12/26 03:23:21;;;;;;;0.70;0.63;;;17.60;76.10;;;;;;5044389;28;45446;-71
2022/12/26 03:28:37;;;;;;;1.05;0.73;;;17.60;76.20;;;;;;5059381;28;45431;-71
2022/12/26 03:31:08;;;;;;;1.33;0.55;;;17.60;76.20;;;;;;5058996;28;45399;-71
2022/12/26 03:36:34;;;;;;;1.15;0.55;;;17.60;76.10;;;;;;5039767;28;45463;-71
2022/12/26 03:39:13;;;;;;;0.70;0.50;;;17.60;76.20;;;;;;5047020;28;45310;-71
2022/12/26 04:44:23;;;;;;;1.00;0.73;;;17.60;74.90;;;;;;5045534;28;45348;-71
2022/12/26 04:46:52;;;;;;;1.48;0.80;;;17.60;74.90;;;;;;5064267;28;45457;-71
2022/12/26 04:52:06;;;;;;;0.70;0.60;;;17.60;74.80;;;;;;5061551;28;45265;-71
2022/12/26 04:54:32;;;;;;;1.50;0.75;;;17.60;74.60;;;;;;5063907;28;47390;-71
2022/12/26 04:56:59;;;;;;;0.88;0.60;;;17.60;74.80;;;;;;5064262;28;45267;-71
2022/12/26 04:59:28;;;;;;;0.82;0.68;;;17.60;74.80;;;;;;5064287;28;45432;-71
2022/12/26 05:10:17;;;;;;;1.00;0.60;;;17.60;75.10;;;;;;5063729;28;45347;-71
2022/12/26 05:12:44;;;;;;;0.93;0.75;;;17.60;75.20;;;;;;5064504;28;45221;-71
2022/12/26 05:29:32;;;;;;;1.38;0.55;;;17.50;75.80;;;;;;5043504;28;45328;-71
2022/12/26 05:31:58;;;;;;;0.52;0.50;;;17.60;75.70;;;;;;5043287;28;45257;-71
2022/12/26 05:34:26;;;;;;;0.52;0.45;;;17.60;75.70;;;;;;5056061;28;45583;-71
2022/12/26 05:36:56;;;;;;;1.02;0.68;;;17.60;75.60;;;;;;5062292;28;47283;-71
2022/12/26 05:39:23;;;;;;;0.80;0.60;;;17.70;75.70;;;;;;5065448;28;45257;-71
2022/12/26 05:41:50;;;;;;;0.50;0.40;;;17.70;75.70;;;;;;5060628;28;45236;-71
2022/12/26 05:44:17;;;;;;;0.60;0.32;;;17.70;75.80;;;;;;5047003;28;45360;-71
2022/12/26 05:46:45;;;;;;;1.40;0.70;;;17.60;75.70;;;;;;5047179;28;45495;-71
2022/12/26 05:49:12;;;;;;;0.38;0.38;;;17.60;75.80;;;;;;5066873;28;45314;-71
2022/12/26 05:51:40;;;;;;;0.50;0.50;;;17.60;76.10;;;;;;5067096;28;45256;-71
2022/12/26 05:54:07;;;;;;;0.68;0.45;;;17.60;76.20;;;;;;5067639;28;45335;-71
2022/12/26 05:56:34;;;;;;;0.40;0.40;;;17.60;76.20;;;;;;5067455;28;47071;-71
2022/12/26 05:59:01;;;;;;;0.45;0.40;;;17.60;76.10;;;;;;5066286;28;45359;-72
2022/12/26 06:01:29;;;;;;;0.82;0.60;;;17.60;76.10;;;;;;5066574;28;45355;-71
2022/12/26 06:03:58;;;;;;;0.60;0.45;;;17.60;76.10;;;;;;5067322;28;45264;-71
2022/12/26 06:06:26;;;;;;;0.73;0.57;;;17.60;76.10;;;;;;5067008;28;45464;-71
2022/12/26 06:08:55;;;;;;;0.63;0.52;;;17.60;76.10;;;;;;5051306;28;45172;-71
2022/12/26 06:11:24;;;;;;;0.70;0.50;;;17.50;75.80;;;;;;5046444;28;45270;-72
2022/12/26 06:13:51;;;;;;;3.95;0.73;;;17.50;75.80;;;;;;5047029;28;45221;-71
2022/12/26 06:16:19;;;;;;;0.70;0.50;;;17.50;75.70;;;;;;5046385;28;47534;-71
2022/12/26 06:18:47;;;;;;;0.55;0.45;;;17.50;75.70;;;;;;5046462;28;45289;-73
2022/12/26 06:21:15;;;;;;;0.50;0.50;;;17.50;75.20;;;;;;5046271;28;45311;-71
2022/12/26 06:23:43;;;;;;;0.65;0.55;;;17.60;75.00;;;;;;5046534;28;45285;-72
2022/12/26 06:26:11;;;;;;;0.70;0.50;;;17.60;74.90;;;;;;5064082;28;48016;-71
2022/12/26 06:28:39;;;;;;;0.40;0.30;;;17.60;74.70;;;;;;5066886;28;45333;-71
2022/12/26 06:31:08;;;;;;;0.73;0.43;;;17.60;74.80;;;;;;5057520;28;45258;-71
2022/12/26 06:33:45;;;;;;;0.40;0.35;;;17.60;74.70;;;;;;5047154;28;45249;-71
2022/12/26 06:36:14;;;;;;;0.90;0.47;;;17.60;74.70;;;;;;5044300;28;45328;-72
2022/12/26 06:38:42;;;;;;;0.65;0.50;;;17.60;74.80;;;;;;5046398;28;45383;-71
2022/12/26 06:41:12;;;;;;;0.45;0.40;;;17.60;74.90;;;;;;5046303;28;45218;-71
2022/12/26 06:44:02;;;;;;;0.77;0.50;;;17.60;74.80;;;;;;5046338;28;45277;-71
2022/12/26 06:46:29;;;;;;;1.27;0.40;;;17.60;74.90;;;;;;5046074;28;46701;-72
2022/12/26 06:48:56;;;;;;;0.73;0.32;;;17.60;75.00;;;;;;5046267;28;45245;-71
2022/12/26 06:51:24;;;;;;;3.38;0.50;;;17.60;75.10;;;;;;5044454;28;45360;-71
2022/12/26 06:53:52;;;;;;;1.05;0.40;;;17.60;76.20;;;;;;5045822;28;45469;-71
2022/12/26 06:56:22;;;;;;;0.45;0.35;;;17.60;75.30;;;;;;5046284;28;46592;-71
2022/12/26 06:58:53;;;;;;;0.70;0.32;;;17.50;75.40;;;;;;5053230;28;45363;-72
2022/12/26 07:01:20;;;;;;;0.38;0.38;;;17.50;75.60;;;;;;5065880;28;45405;-71
2022/12/26 07:03:48;;;;;;;0.60;0.60;;;17.50;75.70;;;;;;5065713;28;45266;-71
2022/12/26 07:06:21;;;;;;;0.73;0.60;;;17.50;76.10;;;;;;5060845;28;47709;-71
2022/12/26 07:08:50;;;;;;;0.50;0.40;;;17.50;77.10;;;;;;5057691;28;45386;-71
2022/12/26 07:11:23;;;;;;;0.30;0.20;;;17.50;76.10;;;;;;5063060;28;45585;-71
2022/12/26 07:13:53;;;;;;;0.45;0.20;;;17.50;76.10;;;;;;5060325;28;45443;-71
2022/12/26 07:16:20;;;;;;;0.30;0.30;;;17.50;76.10;;;;;;5057804;28;46701;-71
2022/12/26 07:18:47;;;;;;;1.33;0.30;;;17.50;76.10;;;;;;5063253;28;45257;-71
2022/12/26 07:21:15;;;;;;;0.60;0.50;;;17.50;76.10;;;;;;5063632;28;45384;-71
2022/12/26 07:23:43;;;;;;;0.32;0.25;;;17.50;76.10;;;;;;5062301;28;45631;-72
2022/12/26 07:26:10;;;;;;;1.02;0.40;;;17.50;76.10;;;;;;5061520;28;46875;-73
2022/12/26 07:28:38;;;;;;;0.35;0.20;;;17.50;76.10;;;;;;5063743;28;45416;-71
2022/12/26 07:31:05;;;;;;;0.40;0.40;;;17.50;76.10;;;;;;5068481;28;45608;-71
2022/12/26 07:33:33;;;;;;;0.40;0.25;;;17.50;76.10;;;;;;5067731;27;45514;-71
2022/12/26 07:36:00;;;;;;;0.70;0.30;;;17.50;76.10;;;;;;5075486;27;45279;-72
2022/12/26 07:38:27;;;;;;;0.30;0.30;;;17.50;76.10;;;;;;5084210;27;45320;-71
2022/12/26 07:40:55;;;;;;;0.55;0.25;;;17.50;76.10;;;;;;5083315;27;45398;-72
2022/12/26 07:43:22;;;;;;;0.55;0.40;;;17.40;75.90;;;;;;5084793;27;45460;-71
2022/12/26 07:45:51;;;;;;;0.20;0.20;;;17.40;75.90;;;;;;5075527;27;46467;-71
2022/12/26 07:48:18;;;;;;;0.40;0.30;;;17.40;76.00;;;;;;5061485;27;45253;-71
2022/12/26 07:50:46;;;;;;;0.22;0.22;;;17.40;76.00;;;;;;5076074;27;45352;-72
2022/12/26 07:53:13;;;;;;;0.80;0.30;;;17.40;75.90;;;;;;5073128;28;45703;-71
2022/12/26 07:55:40;;;;;;;0.82;0.20;;;17.40;76.00;;;;;;5071757;28;45468;-71
2022/12/26 07:58:06;;;;;;;0.17;0.17;;;17.40;75.90;;;;;;5082007;28;45479;-71
2022/12/26 08:00:33;;;;;;;0.65;0.28;;;17.50;76.10;;;;;;5083662;27;45480;-71
2022/12/26 08:03:01;;;;;;;0.45;0.28;;;17.40;76.00;;;;;;5067568;27;45474;-73
2022/12/26 08:05:28;;;;;;;0.55;0.25;;;17.50;76.00;;;;;;5070428;28;46581;-72
2022/12/26 08:07:55;;;;;;;0.43;0.13;;;17.50;75.80;;;;;;5074514;27;45313;-72
2022/12/26 08:10:22;;;;;;;0.15;0.10;;;17.50;75.60;;;;;;5063274;28;45345;-72
2022/12/26 08:12:49;;;;;;;0.30;0.30;;;17.50;75.40;;;;;;5060194;28;45468;-71
2022/12/26 08:15:15;;;;;;;0.57;0.20;;;17.50;75.40;;;;;;5069422;28;46290;-72
2022/12/26 08:17:42;;;;;;;0.30;0.20;;;17.50;75.20;;;;;;5075079;27;45419;-71
2022/12/26 08:20:10;;;;;;;0.20;0.20;;;17.50;75.00;;;;;;5066785;27;45337;-72
2022/12/26 08:22:37;;;;;;;0.32;0.20;;;17.50;74.90;;;;;;5063371;28;45365;-72
2022/12/26 08:25:05;;;;;;;0.10;0.10;;;17.50;74.80;;;;;;5045414;28;46545;-71
2022/12/26 08:27:32;;;;;;;0.45;0.28;;;17.50;74.50;;;;;;5043361;28;45325;-71
2022/12/26 08:29:59;;;;;;;0.60;0.20;;;17.50;74.50;;;;;;5067459;28;45357;-71
2022/12/26 08:32:26;;;;;;;1.45;0.22;;;17.50;74.50;;;;;;5061779;27;45239;-72
2022/12/26 08:34:52;;;;;;;0.20;0.20;;;17.50;74.50;;;;;;5042826;28;46981;-72
2022/12/26 08:37:22;;;;;;;0.10;0.10;;;17.50;74.20;;;;;;5042858;28;45302;-71
2022/12/26 08:39:51;;;;;;;0.30;0.28;;;17.50;74.00;;;;;;5063542;28;45261;-71
2022/12/26 08:42:18;;;;;;;0.40;0.25;;;17.50;75.00;;;;;;5077122;28;45348;-71
2022/12/26 08:44:44;;;;;;;0.20;0.20;;;17.50;74.00;;;;;;5063115;28;47545;-72
2022/12/26 08:47:12;;;;;;;0.40;0.20;;;17.50;74.30;;;;;;5062025;28;45604;-72
2022/12/26 08:49:38;;;;;;;0.47;0.17;;;17.50;74.40;;;;;;5066033;28;45410;-72
2022/12/26 08:52:05;;;;;;;0.63;0.20;;;17.40;74.60;;;;;;5073856;27;45434;-72
2022/12/26 08:54:34;;;;;;;0.77;0.30;;;17.40;74.70;;;;;;5062653;28;46590;-71
2022/12/26 08:57:01;;;;;;;0.10;0.10;;;17.40;74.70;;;;;;5062311;28;45435;-72
2022/12/26 08:59:27;;;;;;;0.28;0.20;;;17.40;74.80;;;;;;5046879;28;45615;-73
2022/12/26 09:01:54;;;;;;;0.20;0.20;;;17.40;74.70;;;;;;5059123;28;45577;-72
2022/12/26 09:04:21;;;;;;;0.63;0.22;;;17.50;74.90;;;;;;5073970;28;46387;-71
2022/12/26 09:06:48;;;;;;;0.30;0.20;;;17.50;74.70;;;;;;5074529;27;46671;-72
2022/12/26 09:09:15;;;;;;;0.10;0.10;;;17.50;74.70;;;;;;5057234;28;45462;-72
2022/12/26 09:11:44;;;;;;;0.10;0.10;;;17.50;74.70;;;;;;5059302;28;45494;-72
2022/12/26 09:14:11;;;;;;;0.30;0.22;;;17.50;74.70;;;;;;5068856;28;45301;-72
2022/12/26 09:16:41;;;;;;;0.20;0.20;;;17.50;74.60;;;;;;5073840;27;45451;-72
2022/12/26 09:19:11;;;;;;;0.20;0.20;;;17.50;74.60;;;;;;5075977;27;45295;-73
2022/12/26 09:21:39;;;;;;;2.08;0.32;;;17.50;74.60;;;;;;5063679;28;45325;-72
2022/12/26 09:24:10;;;;;;;0.20;0.10;;;17.50;74.70;;;;;;5067458;28;46635;-71
2022/12/26 09:26:36;;;;;;;0.30;0.30;;;17.50;74.70;;;;;;5069485;28;45367;-71
2022/12/26 09:29:05;;;;;;;0.10;0.10;;;17.50;74.90;;;;;;5069910;28;45410;-72
2022/12/26 09:31:34;;;;;;;0.93;0.22;;;17.40;75.00;;;;;;5065286;28;45313;-71
2022/12/26 09:34:02;;;;;;;0.85;0.20;;;17.40;75.00;;;;;;5056053;28;46071;-72
2022/12/26 09:36:33;;;;;;;0.20;0.10;;;17.40;75.00;;;;;;5061333;28;45303;-71
2022/12/26 09:39:00;;;;;;;0.40;0.25;;;17.40;75.10;;;;;;5062667;28;45486;-72
2022/12/26 09:41:56;;;;;;;0.10;0.10;;;17.40;75.10;;;;;;5061813;28;45582;-71
2022/12/26 09:44:30;;;;;;;0.13;0.13;;;17.40;75.10;;;;;;5061918;28;46574;-72
2022/12/26 09:47:08;;;;;;;1.02;0.35;;;17.40;75.00;;;;;;5062265;28;45451;-71
2022/12/26 09:49:39;;;;;;;0.77;0.30;;;17.40;74.90;;;;;;5057222;28;45427;-71
2022/12/26 09:52:15;;;;;;;0.20;0.20;;;17.40;74.80;;;;;;5075535;27;45519;-71
2022/12/26 09:54:44;;;;;;;0.82;0.30;;;17.50;74.80;;;;;;5055256;28;48350;-71
2022/12/26 09:57:18;;;;;;;0.52;0.20;;;17.50;74.80;;;;;;5061415;28;45627;-71
2022/12/26 09:59:52;;;;;;;0.68;0.20;;;17.50;74.80;;;;;;5070952;28;45248;-72
2022/12/26 10:02:22;;;;;;;0.50;0.20;;;17.50;74.80;;;;;;5071814;27;45243;-71
2022/12/26 10:04:49;;;;;;;0.20;0.20;;;17.50;74.70;;;;;;5068353;28;46394;-71
2022/12/26 10:07:25;;;;;;;0.20;0.10;;;17.50;74.70;;;;;;5067025;27;45411;-71
2022/12/26 10:10:01;;;;;;;0.22;0.20;;;17.50;74.50;;;;;;5061575;28;45409;-71
2022/12/26 10:12:42;;;;;;;4.10;0.30;;;17.50;74.70;;;;;;5061271;28;45578;-72
2022/12/26 10:15:27;;;;;;;0.10;0.10;;;17.50;74.80;;;;;;5061846;28;46789;-72
2022/12/26 10:18:02;;;;;;;0.10;0.10;;;17.50;74.50;;;;;;5053801;28;45487;-72
2022/12/26 10:20:39;;;;;;;0.28;0.25;;;17.50;74.50;;;;;;5058023;28;45294;-72
2022/12/26 10:23:29;;;;;;;0.40;0.28;;;17.40;74.40;;;;;;5068846;28;45536;-71
2022/12/26 10:26:00;;;;;;;0.93;0.30;;;17.40;74.30;;;;;;5071387;27;47990;-71
2022/12/26 10:28:32;;;;;;;0.82;0.50;;;17.40;74.10;;;;;;5064315;28;45420;-71
2022/12/26 10:31:05;;;;;;;2.53;0.35;;;17.40;74.00;;;;;;5061700;28;45415;-71
2022/12/26 10:33:42;;;;;;;0.75;0.22;;;17.40;74.70;;;;;;5074023;28;45285;-71
2022/12/26 10:36:17;;;;;;;1.05;0.38;;;17.40;74.10;;;;;;5072926;28;48252;-72
2022/12/26 10:38:47;;;;;;;0.30;0.28;;;17.40;74.00;;;;;;5067010;28;45494;-71
2022/12/26 10:41:25;;;;;;;0.43;0.22;;;17.40;74.50;;;;;;5063234;28;45438;-71
2022/12/26 10:43:52;;;;;;;2.47;0.50;;;17.40;74.50;;;;;;5064372;28;45407;-71
2022/12/26 10:46:46;;;;;;;1.42;0.30;;;17.40;74.70;;;;;;5058234;28;46284;-71
2022/12/26 10:49:18;;;;;;;0.20;0.20;;;17.40;74.70;;;;;;5076337;28;45468;-71
2022/12/26 10:51:45;;;;;;;0.63;0.25;;;17.40;74.70;;;;;;5061303;28;45276;-73
2022/12/26 10:54:16;;;;;;;0.82;0.50;;;17.40;74.50;;;;;;5072270;28;45388;-72
2022/12/26 10:56:45;;;;;;;0.22;0.22;;;17.40;74.70;;;;;;5062268;28;45842;-72
2022/12/26 10:59:17;;;;;;;0.30;0.20;;;17.40;74.70;;;;;;5061997;28;46290;-71
2022/12/26 11:01:47;;;;;;;1.30;0.30;;;17.40;74.70;;;;;;5060937;28;45254;-71
2022/12/26 11:04:21;;;;;;;0.90;0.40;;;17.40;74.60;;;;;;5065982;28;45484;-71
2022/12/26 11:06:51;;;;;;;0.70;0.47;;;17.40;74.30;;;;;;5066036;28;46139;-71
2022/12/26 11:09:41;;;;;;;1.15;0.70;;;17.40;74.40;;;;;;5064636;28;45287;-71
2022/12/26 11:12:20;;;;;;;0.55;0.40;;;17.40;74.20;;;;;;5065085;28;45283;-71
2022/12/26 11:14:47;;;;;;;0.85;0.30;;;17.40;74.10;;;;;;5050101;28;45313;-71
2022/12/26 11:17:27;;;;;;;0.65;0.30;;;17.40;74.20;;;;;;5044317;28;45301;-71
2022/12/26 11:20:12;;;;;;;0.32;0.30;;;17.40;74.20;;;;;;5043812;28;45306;-71
2022/12/26 11:22:38;;;;;;;0.20;0.10;;;17.40;74.00;;;;;;5044220;28;45364;-71
2022/12/26 11:25:22;;;;;;;0.35;0.32;;;17.40;73.90;;;;;;5044761;28;45340;-72
2022/12/26 11:27:50;;;;;;;0.45;0.38;;;17.40;73.90;;;;;;5042709;28;45482;-72
2022/12/26 11:30:24;;;;;;;2.55;0.40;;;17.40;73.60;;;;;;5044447;28;45467;-71
2022/12/26 11:33:06;;;;;;;0.90;0.25;;;17.40;73.80;;;;;;5046562;28;45316;-72
2022/12/26 11:35:36;;;;;;;0.52;0.28;;;17.40;73.50;;;;;;5064250;28;45282;-71
2022/12/26 11:38:05;;;;;;;1.08;0.47;;;17.50;73.30;;;;;;5064006;28;46431;-71
2022/12/26 11:40:35;;;;;;;0.88;0.47;;;17.50;73.20;;;;;;5062643;28;45408;-73
2022/12/26 11:43:05;;;;;;;1.75;0.40;;;17.50;73.00;;;;;;5064285;28;45327;-71
2022/12/26 11:45:38;;;;;;;1.02;0.50;;;17.50;73.00;;;;;;5063933;28;45273;-71
2022/12/26 11:48:18;;;;;;;0.95;0.30;;;17.50;73.00;;;;;;5063099;28;46256;-71
2022/12/26 11:50:46;;;;;;;1.70;0.40;;;17.50;72.90;;;;;;5062858;28;45309;-72
2022/12/26 11:53:17;;;;;;;0.65;0.17;;;17.50;72.90;;;;;;5064312;28;45429;-71
2022/12/26 11:55:44;;;;;;;0.75;0.20;;;17.50;72.60;;;;;;5064190;28;45405;-71
2022/12/26 11:58:18;;;;;;;0.98;0.30;;;17.50;72.60;;;;;;5062543;28;47315;-72
2022/12/26 12:01:09;;;;;;;0.90;0.40;;;17.50;72.50;;;;;;5063542;28;45273;-72
2022/12/26 12:03:41;;;;;;;0.30;0.30;;;17.50;72.70;;;;;;5063509;28;45402;-72
2022/12/26 12:06:20;;;;;;;0.25;0.22;;;17.50;72.60;;;;;;5045824;28;45262;-71
2022/12/26 12:08:52;;;;;;;1.95;0.30;;;17.50;72.60;;;;;;5040260;28;46762;-72
2022/12/26 12:11:27;;;;;;;0.63;0.20;;;17.50;72.70;;;;;;5042908;28;45982;-72
2022/12/26 12:14:18;;;;;;;0.20;0.20;;;17.50;72.80;;;;;;5043615;28;45358;-72
2022/12/26 12:16:52;;;;;;;0.30;0.20;;;17.50;72.90;;;;;;5043439;28;45475;-72
2022/12/26 12:19:27;;;;;;;3.25;0.52;;;17.50;73.00;;;;;;5043774;28;46583;-72
2022/12/26 12:22:18;;;;;;;0.17;0.15;;;17.60;73.00;;;;;;5047283;28;45296;-71
2022/12/26 12:24:56;;;;;;;0.68;0.38;;;17.60;73.00;;;;;;5063772;28;45323;-72
2022/12/26 12:27:29;;;;;;;1.17;0.40;;;17.60;72.90;;;;;;5063611;28;45338;-73
2022/12/26 12:30:26;;;;;;;0.20;0.20;;;17.60;73.00;;;;;;5062661;28;45440;-71
2022/12/26 12:33:07;;;;;;;0.98;0.43;;;17.60;73.00;;;;;;5060569;28;45502;-72
2022/12/26 12:35:48;;;;;;;1.00;0.45;;;17.60;72.90;;;;;;5043209;28;45386;-72
2022/12/26 12:38:34;;;;;;;1.63;0.50;;;17.70;73.10;;;;;;5043591;28;45428;-72
2022/12/26 12:41:36;;;;;;;0.90;0.30;;;17.70;74.00;;;;;;5042400;28;46601;-72
2022/12/26 12:44:10;;;;;;;0.30;0.30;;;17.70;72.90;;;;;;5031805;28;45443;-71
2022/12/26 12:46:46;;;;;;;2.50;0.30;;;17.70;73.10;;;;;;5043378;28;45296;-71
2022/12/26 12:49:42;;;;;;;0.25;0.20;;;17.70;73.10;;;;;;5040270;28;45289;-71
2022/12/26 12:52:34;;;;;;;0.20;0.20;;;17.70;73.20;;;;;;5042898;28;46274;-71
2022/12/26 12:55:23;;;;;;;1.63;0.50;;;17.60;73.20;;;;;;5043128;28;45409;-71
2022/12/26 12:57:55;;;;;;;0.45;0.30;;;17.60;73.20;;;;;;5042026;28;45484;-71
2022/12/26 13:00:24;;;;;;;1.38;0.40;;;17.60;73.20;;;;;;5042137;28;45416;-71
2022/12/26 13:02:55;;;;;;;0.88;0.32;;;17.60;73.30;;;;;;5042468;28;46265;-71
2022/12/26 13:05:41;;;;;;;1.08;0.30;;;17.60;73.10;;;;;;5039814;28;45365;-72
2022/12/26 13:08:15;;;;;;;1.40;0.38;;;17.60;72.90;;;;;;5042462;28;45394;-72
2022/12/26 13:10:49;;;;;;;0.47;0.32;;;17.60;73.00;;;;;;5042732;28;45308;-71
2022/12/26 13:13:23;;;;;;;1.17;0.30;;;17.60;72.80;;;;;;5043002;28;48138;-71
2022/12/26 13:15:56;;;;;;;0.73;0.30;;;17.60;72.70;;;;;;5042361;28;45230;-71
2022/12/26 13:18:27;;;;;;;0.28;0.20;;;17.60;72.50;;;;;;5040016;28;45372;-71
2022/12/26 13:20:56;;;;;;;0.65;0.20;;;17.60;72.40;;;;;;5042273;28;45458;-70
2022/12/26 13:26:19;;;;;;;1.92;0.40;;;17.60;72.20;;;;;;5042388;28;45424;-72
2022/12/26 13:28:54;;;;;;;0.28;0.15;;;17.60;72.10;;;;;;5042679;28;45314;-71
2022/12/26 13:31:21;;;;;;;1.08;0.45;;;17.60;72.00;;;;;;5060675;28;45494;-71
2022/12/26 13:33:48;;;;;;;0.68;0.30;;;17.60;71.80;;;;;;5062572;28;46797;-72
2022/12/26 13:36:34;;;;;;;1.17;0.30;;;17.60;71.80;;;;;;5061981;28;45640;-71
2022/12/26 13:39:33;;;;;;;0.63;0.40;;;17.60;71.70;;;;;;5062607;28;45330;-72
2022/12/26 13:45:48;;;;;;;1.40;0.52;;;17.60;71.90;;;;;;5062527;28;45408;-72
2022/12/26 13:48:55;;;;;;;1.15;0.47;;;17.60;72.10;;;;;;5061032;28;45431;-71
2022/12/26 13:51:44;;;;;;;0.68;0.20;;;17.60;73.30;;;;;;5055109;28;45408;-71
2022/12/26 13:54:13;;;;;;;0.77;0.40;;;17.60;72.40;;;;;;5062080;28;45428;-72
2022/12/26 13:57:28;;;;;;;0.98;0.35;;;17.60;72.60;;;;;;5061542;28;46620;-71
2022/12/26 14:00:11;;;;;;;1.15;0.25;;;17.60;72.70;;;;;;5062937;28;46028;-71
2022/12/26 14:02:59;;;;;;;0.75;0.40;;;17.60;72.80;;;;;;5065975;28;45358;-73
2022/12/26 14:05:33;;;;;;;0.65;0.35;;;17.60;72.80;;;;;;5052489;28;45428;-71
2022/12/26 14:08:06;;;;;;;0.82;0.32;;;17.60;72.80;;;;;;5045889;28;45474;-71
2022/12/26 14:10:45;;;;;;;0.90;0.40;;;17.60;72.70;;;;;;5044318;28;45285;-71
2022/12/26 14:13:32;;;;;;;0.65;0.28;;;17.60;72.70;;;;;;5045902;28;45411;-71
2022/12/26 14:16:06;;;;;;;1.60;0.70;;;17.60;72.60;;;;;;5045436;28;45253;-71
2022/12/26 14:18:43;;;;;;;1.02;0.22;;;17.60;72.50;;;;;;5045342;28;46264;-71
2022/12/26 14:21:25;;;;;;;1.63;0.32;;;17.60;72.50;;;;;;5045092;28;45317;-72
2022/12/26 14:23:59;;;;;;;0.70;0.38;;;17.70;72.40;;;;;;5045808;28;45414;-71
2022/12/26 14:26:38;;;;;;;0.65;0.20;;;17.60;72.30;;;;;;5045113;28;45286;-71
2022/12/26 14:29:21;;;;;;;1.52;0.40;;;17.60;72.20;;;;;;5044749;28;48048;-72
2022/12/26 14:32:05;;;;;;;0.95;0.30;;;17.60;72.00;;;;;;5044435;28;45594;-71
2022/12/26 14:34:46;;;;;;;0.73;0.28;;;17.60;71.80;;;;;;5045186;28;45365;-71
2022/12/26 14:37:21;;;;;;;0.63;0.38;;;17.60;71.70;;;;;;5045653;28;45273;-71
2022/12/26 14:40:02;;;;;;;0.63;0.17;;;17.60;71.70;;;;;;5044853;28;45269;-71
2022/12/26 14:45:41;;;;;;;0.63;0.30;;;17.60;71.80;;;;;;5044755;28;45423;-71
2022/12/26 14:48:52;;;;;;;1.50;0.40;;;17.60;71.40;;;;;;5045600;28;45298;-71
2022/12/26 14:51:40;;;;;;;0.88;0.50;;;17.60;72.60;;;;;;4986489;28;45526;-71
2022/12/26 14:54:34;;;;;;;0.52;0.20;;;17.50;71.20;;;;;;5044908;28;45314;-71
2022/12/26 14:57:01;;;;;;;0.77;0.40;;;17.50;70.60;;;;;;5044593;28;45381;-72
2022/12/26 14:59:30;;;;;;;1.35;0.50;;;17.50;70.90;;;;;;5043213;28;45483;-71
2022/12/26 15:02:11;;;;;;;1.52;0.50;;;17.50;70.80;;;;;;5044004;28;45462;-71
2022/12/26 15:05:04;;;;;;;1.05;0.40;;;17.50;70.60;;;;;;5044837;28;45416;-71
2022/12/26 15:07:58;;;;;;;1.10;0.60;;;17.60;70.70;;;;;;5044863;28;45507;-71
2022/12/26 15:10:59;;;;;;;1.10;0.50;;;17.50;70.60;;;;;;5043516;28;45358;-71
2022/12/26 15:14:13;;;;;;;1.13;0.30;;;17.50;71.60;;;;;;5031553;28;45328;-71
2022/12/26 15:17:03;;;;;;;0.90;0.35;;;17.50;70.60;;;;;;5044306;28;45377;-70
2022/12/26 15:20:09;;;;;;;0.93;0.50;;;17.50;70.30;;;;;;5044770;28;45408;-70
2022/12/26 15:23:28;;;;;;;1.00;0.30;;;17.50;69.70;;;;;;5044731;28;45381;-72
2022/12/26 15:26:23;;;;;;;1.73;0.50;;;17.50;69.20;;;;;;5000893;28;45479;-70
2022/12/26 15:29:25;;;;;;;1.70;0.60;;;17.50;68.70;;;;;;5042087;28;45313;-71
2022/12/26 15:32:03;;;;;;;1.42;0.40;;;17.40;69.00;;;;;;5043400;28;45379;-71
2022/12/26 15:34:42;;;;;;;0.60;0.30;;;17.40;67.90;;;;;;5044771;28;45508;-71
2022/12/26 15:37:20;;;;;;;0.82;0.38;;;17.40;67.60;;;;;;5043955;28;45341;-71
2022/12/26 15:39:55;;;;;;;0.95;0.43;;;17.40;67.50;;;;;;5043985;28;45970;-71
2022/12/26 15:42:38;;;;;;;1.98;0.52;;;17.30;67.20;;;;;;5043250;28;45416;-71